sensor_id;sensor_type;location;lat;lon;timestamp;temperature;humidity
23544;DHT22;11950;51.230;4.012;2023-08-07T00:00:50;16.00;99.90
23544;DHT22;11950;51.230;4.012;2023-08-07T00:03:16;16.00;99.90
23544;DHT22;11950;51.230;4.012;2023-08-07T00:05:45;16.00;99.90
23544;DHT22;11950;51.230;4.012;2023-08-07T00:08:12;16.00;99.90
23544;DHT22;11950;51.230;4.012;2023-08-07T00:10:38;16.00;99.90
23544;DHT22;11950;51.230;4.012;2023-08-07T00:13:05;16.00;99.90
23544;DHT22;11950;51.230;4.012;2023-08-07T00:15:32;16.00;99.90
23544;DHT22;11950;51.230;4.012;2023-08-07T00:18:00;16.00;99.90
23544;DHT22;11950;51.230;4.012;2023-08-07T00:20:26;16.00;99.90
23544;DHT22;11950;51.230;4.012;2023-08-07T00:22:52;15.90;99.90
23544;DHT22;11950;51.230;4.012;2023-08-07T00:25:19;15.90;99.90
23544;DHT22;11950;51.230;4.012;2023-08-07T00:27:45;15.90;99.90
23544;DHT22;11950;51.230;4.012;2023-08-07T00:30:11;15.80;99.90
23544;DHT22;11950;51.230;4.012;2023-08-07T00:32:38;15.80;99.90
23544;DHT22;11950;51.230;4.012;2023-08-07T00:35:06;15.80;99.90
23544;DHT22;11950;51.230;4.012;2023-08-07T00:37:34;15.80;99.90
23544;DHT22;11950;51.230;4.012;2023-08-07T00:40:02;15.70;99.90
23544;DHT22;11950;51.230;4.012;2023-08-07T00:42:28;15.70;99.90
23544;DHT22;11950;51.230;4.012;2023-08-07T00:44:55;15.70;99.90
23544;DHT22;11950;51.230;4.012;2023-08-07T00:47:21;15.70;99.90
23544;DHT22;11950;51.230;4.012;2023-08-07T00:49:48;15.70;99.90
23544;DHT22;11950;51.230;4.012;2023-08-07T00:52:15;15.70;99.90
23544;DHT22;11950;51.230;4.012;2023-08-07T00:54:42;15.80;99.90
23544;DHT22;11950;51.230;4.012;2023-08-07T00:57:13;15.80;99.90
23544;DHT22;11950;51.230;4.012;2023-08-07T00:59:41;15.70;99.90
23544;DHT22;11950;51.230;4.012;2023-08-07T01:02:09;15.80;99.90
23544;DHT22;11950;51.230;4.012;2023-08-07T01:04:35;15.70;99.90
23544;DHT22;11950;51.230;4.012;2023-08-07T01:07:02;15.70;99.90
23544;DHT22;11950;51.230;4.012;2023-08-07T01:09:28;15.60;99.90
23544;DHT22;11950;51.230;4.012;2023-08-07T01:14:46;15.60;99.90
23544;DHT22;11950;51.230;4.012;2023-08-07T01:17:16;15.50;99.90
23544;DHT22;11950;51.230;4.012;2023-08-07T01:19:43;15.50;99.90
23544;DHT22;11950;51.230;4.012;2023-08-07T01:22:14;15.50;99.90
23544;DHT22;11950;51.230;4.012;2023-08-07T01:24:42;15.50;99.90
23544;DHT22;11950;51.230;4.012;2023-08-07T01:32:28;15.30;99.90
23544;DHT22;11950;51.230;4.012;2023-08-07T01:34:55;15.30;99.90
23544;DHT22;11950;51.230;4.012;2023-08-07T01:37:33;15.30;99.90
23544;DHT22;11950;51.230;4.012;2023-08-07T01:40:01;15.20;99.90
23544;DHT22;11950;51.230;4.012;2023-08-07T01:42:30;15.20;99.90
23544;DHT22;11950;51.230;4.012;2023-08-07T01:44:58;15.20;99.90
23544;DHT22;11950;51.230;4.012;2023-08-07T01:47:24;15.20;99.90
23544;DHT22;11950;51.230;4.012;2023-08-07T01:49:50;15.30;99.90
23544;DHT22;11950;51.230;4.012;2023-08-07T01:52:17;15.20;99.90
23544;DHT22;11950;51.230;4.012;2023-08-07T01:54:43;15.20;99.90
23544;DHT22;11950;51.230;4.012;2023-08-07T01:57:09;15.20;99.90
23544;DHT22;11950;51.230;4.012;2023-08-07T01:59:35;15.10;99.90
23544;DHT22;11950;51.230;4.012;2023-08-07T02:02:04;15.10;99.90
23544;DHT22;11950;51.230;4.012;2023-08-07T02:04:30;15.10;99.90
23544;DHT22;11950;51.230;4.012;2023-08-07T02:06:56;15.10;99.90
23544;DHT22;11950;51.230;4.012;2023-08-07T02:09:23;15.10;99.90
23544;DHT22;11950;51.230;4.012;2023-08-07T02:11:50;15.10;99.90
23544;DHT22;11950;51.230;4.012;2023-08-07T02:14:16;15.10;99.90
23544;DHT22;11950;51.230;4.012;2023-08-07T02:16:42;15.10;99.90
23544;DHT22;11950;51.230;4.012;2023-08-07T02:19:08;15.20;99.90
23544;DHT22;11950;51.230;4.012;2023-08-07T02:21:34;15.20;99.90
23544;DHT22;11950;51.230;4.012;2023-08-07T02:24:01;15.20;99.90
23544;DHT22;11950;51.230;4.012;2023-08-07T02:26:27;15.20;99.90
23544;DHT22;11950;51.230;4.012;2023-08-07T02:28:53;15.30;99.90
23544;DHT22;11950;51.230;4.012;2023-08-07T02:31:19;15.30;99.90
23544;DHT22;11950;51.230;4.012;2023-08-07T02:33:47;15.30;99.90
23544;DHT22;11950;51.230;4.012;2023-08-07T02:36:13;15.30;99.90
23544;DHT22;11950;51.230;4.012;2023-08-07T02:38:40;15.30;99.90
23544;DHT22;11950;51.230;4.012;2023-08-07T02:41:06;15.40;99.90
23544;DHT22;11950;51.230;4.012;2023-08-07T02:43:34;15.40;99.90
23544;DHT22;11950;51.230;4.012;2023-08-07T02:46:00;15.30;99.90
23544;DHT22;11950;51.230;4.012;2023-08-07T02:48:27;15.30;99.90
23544;DHT22;11950;51.230;4.012;2023-08-07T02:50:53;15.30;99.90
23544;DHT22;11950;51.230;4.012;2023-08-07T02:53:19;15.30;99.90
23544;DHT22;11950;51.230;4.012;2023-08-07T02:55:45;15.40;99.90
23544;DHT22;11950;51.230;4.012;2023-08-07T02:58:12;15.40;99.90
23544;DHT22;11950;51.230;4.012;2023-08-07T03:00:38;15.40;99.90
23544;DHT22;11950;51.230;4.012;2023-08-07T03:03:04;15.40;99.90
23544;DHT22;11950;51.230;4.012;2023-08-07T03:05:30;15.50;99.90
23544;DHT22;11950;51.230;4.012;2023-08-07T03:07:57;15.50;99.90
23544;DHT22;11950;51.230;4.012;2023-08-07T03:10:23;15.40;99.90
23544;DHT22;11950;51.230;4.012;2023-08-07T03:12:49;15.50;99.90
23544;DHT22;11950;51.230;4.012;2023-08-07T03:15:15;15.50;99.90
23544;DHT22;11950;51.230;4.012;2023-08-07T03:17:42;15.50;99.90
23544;DHT22;11950;51.230;4.012;2023-08-07T03:20:08;15.50;99.90
23544;DHT22;11950;51.230;4.012;2023-08-07T03:22:35;15.50;99.90
23544;DHT22;11950;51.230;4.012;2023-08-07T03:25:02;15.50;99.90
23544;DHT22;11950;51.230;4.012;2023-08-07T03:27:28;15.50;99.90
23544;DHT22;11950;51.230;4.012;2023-08-07T03:29:55;15.50;99.90
23544;DHT22;11950;51.230;4.012;2023-08-07T03:32:24;15.50;99.90
23544;DHT22;11950;51.230;4.012;2023-08-07T03:34:52;15.50;99.90
23544;DHT22;11950;51.230;4.012;2023-08-07T03:37:18;15.50;99.90
23544;DHT22;11950;51.230;4.012;2023-08-07T03:39:44;15.50;99.90
23544;DHT22;11950;51.230;4.012;2023-08-07T03:42:14;15.50;99.90
23544;DHT22;11950;51.230;4.012;2023-08-07T03:44:44;15.50;99.90
23544;DHT22;11950;51.230;4.012;2023-08-07T03:47:11;15.50;99.90
23544;DHT22;11950;51.230;4.012;2023-08-07T03:49:38;15.40;99.90
23544;DHT22;11950;51.230;4.012;2023-08-07T03:52:05;15.40;99.90
23544;DHT22;11950;51.230;4.012;2023-08-07T03:54:31;15.40;99.90
23544;DHT22;11950;51.230;4.012;2023-08-07T03:56:58;15.40;99.90
23544;DHT22;11950;51.230;4.012;2023-08-07T03:59:24;15.40;99.90
23544;DHT22;11950;51.230;4.012;2023-08-07T04:01:50;15.40;99.90
23544;DHT22;11950;51.230;4.012;2023-08-07T04:04:17;15.40;99.90
23544;DHT22;11950;51.230;4.012;2023-08-07T04:06:43;15.30;99.90
23544;DHT22;11950;51.230;4.012;2023-08-07T04:09:10;15.30;99.90
23544;DHT22;11950;51.230;4.012;2023-08-07T04:11:36;15.30;99.90
23544;DHT22;11950;51.230;4.012;2023-08-07T04:14:03;15.30;99.90
23544;DHT22;11950;51.230;4.012;2023-08-07T04:16:30;15.30;99.90
23544;DHT22;11950;51.230;4.012;2023-08-07T04:18:57;15.30;99.90
23544;DHT22;11950;51.230;4.012;2023-08-07T04:21:23;15.30;99.90
23544;DHT22;11950;51.230;4.012;2023-08-07T04:23:49;15.30;99.90
23544;DHT22;11950;51.230;4.012;2023-08-07T04:26:16;15.30;99.90
23544;DHT22;11950;51.230;4.012;2023-08-07T04:28:42;15.20;99.90
23544;DHT22;11950;51.230;4.012;2023-08-07T04:31:08;15.20;99.90
23544;DHT22;11950;51.230;4.012;2023-08-07T04:33:34;15.10;99.90
23544;DHT22;11950;51.230;4.012;2023-08-07T04:36:02;15.10;99.90
23544;DHT22;11950;51.230;4.012;2023-08-07T04:38:28;15.00;99.90
23544;DHT22;11950;51.230;4.012;2023-08-07T04:40:54;15.00;99.90
23544;DHT22;11950;51.230;4.012;2023-08-07T04:43:21;15.00;99.90
23544;DHT22;11950;51.230;4.012;2023-08-07T04:45:48;14.90;99.90
23544;DHT22;11950;51.230;4.012;2023-08-07T04:48:14;14.90;99.90
23544;DHT22;11950;51.230;4.012;2023-08-07T04:50:41;14.80;99.90
23544;DHT22;11950;51.230;4.012;2023-08-07T04:53:07;14.80;99.90
23544;DHT22;11950;51.230;4.012;2023-08-07T04:55:34;14.80;99.90
23544;DHT22;11950;51.230;4.012;2023-08-07T04:58:00;14.80;99.90
23544;DHT22;11950;51.230;4.012;2023-08-07T05:00:27;14.80;99.90
23544;DHT22;11950;51.230;4.012;2023-08-07T05:02:54;14.80;99.90
23544;DHT22;11950;51.230;4.012;2023-08-07T05:05:21;14.80;99.90
23544;DHT22;11950;51.230;4.012;2023-08-07T05:07:48;14.80;99.90
23544;DHT22;11950;51.230;4.012;2023-08-07T05:10:14;14.70;99.90
23544;DHT22;11950;51.230;4.012;2023-08-07T05:12:40;14.80;99.90
23544;DHT22;11950;51.230;4.012;2023-08-07T05:15:07;14.80;99.90
23544;DHT22;11950;51.230;4.012;2023-08-07T05:17:33;14.80;99.90
23544;DHT22;11950;51.230;4.012;2023-08-07T05:19:59;14.70;99.90
23544;DHT22;11950;51.230;4.012;2023-08-07T05:22:25;14.80;99.90
23544;DHT22;11950;51.230;4.012;2023-08-07T05:24:51;14.70;99.90
23544;DHT22;11950;51.230;4.012;2023-08-07T05:27:18;14.80;99.90
23544;DHT22;11950;51.230;4.012;2023-08-07T05:29:44;14.80;99.90
23544;DHT22;11950;51.230;4.012;2023-08-07T05:32:14;14.80;99.90
23544;DHT22;11950;51.230;4.012;2023-08-07T05:34:41;14.80;99.90
23544;DHT22;11950;51.230;4.012;2023-08-07T05:37:07;14.80;99.90
23544;DHT22;11950;51.230;4.012;2023-08-07T05:39:35;14.90;99.90
23544;DHT22;11950;51.230;4.012;2023-08-07T05:42:01;14.90;99.90
23544;DHT22;11950;51.230;4.012;2023-08-07T05:44:28;14.90;99.90
23544;DHT22;11950;51.230;4.012;2023-08-07T05:46:54;15.00;99.90
23544;DHT22;11950;51.230;4.012;2023-08-07T05:49:23;15.00;99.90
23544;DHT22;11950;51.230;4.012;2023-08-07T05:51:51;15.10;99.90
23544;DHT22;11950;51.230;4.012;2023-08-07T05:54:17;15.10;99.90
23544;DHT22;11950;51.230;4.012;2023-08-07T05:56:44;15.20;99.90
23544;DHT22;11950;51.230;4.012;2023-08-07T05:59:10;15.30;99.90
23544;DHT22;11950;51.230;4.012;2023-08-07T06:01:36;15.30;99.90
23544;DHT22;11950;51.230;4.012;2023-08-07T06:04:03;15.30;99.90
23544;DHT22;11950;51.230;4.012;2023-08-07T06:06:29;15.40;99.90
23544;DHT22;11950;51.230;4.012;2023-08-07T06:08:56;15.40;99.90
23544;DHT22;11950;51.230;4.012;2023-08-07T06:11:22;15.50;99.90
23544;DHT22;11950;51.230;4.012;2023-08-07T06:13:49;15.60;99.90
23544;DHT22;11950;51.230;4.012;2023-08-07T06:16:15;15.60;99.90
23544;DHT22;11950;51.230;4.012;2023-08-07T06:18:41;15.60;99.90
23544;DHT22;11950;51.230;4.012;2023-08-07T06:21:07;15.60;99.90
23544;DHT22;11950;51.230;4.012;2023-08-07T06:23:37;15.70;99.90
23544;DHT22;11950;51.230;4.012;2023-08-07T06:26:03;15.70;99.90
23544;DHT22;11950;51.230;4.012;2023-08-07T06:28:34;15.70;99.90
23544;DHT22;11950;51.230;4.012;2023-08-07T06:31:04;15.70;99.90
23544;DHT22;11950;51.230;4.012;2023-08-07T06:33:31;15.80;99.90
23544;DHT22;11950;51.230;4.012;2023-08-07T06:35:57;15.80;99.90
23544;DHT22;11950;51.230;4.012;2023-08-07T06:38:24;15.90;99.90
23544;DHT22;11950;51.230;4.012;2023-08-07T06:40:50;15.90;99.90
23544;DHT22;11950;51.230;4.012;2023-08-07T06:43:17;16.00;99.90
23544;DHT22;11950;51.230;4.012;2023-08-07T06:45:46;16.00;99.90
23544;DHT22;11950;51.230;4.012;2023-08-07T06:48:12;16.00;99.90
23544;DHT22;11950;51.230;4.012;2023-08-07T06:50:39;16.00;99.90
23544;DHT22;11950;51.230;4.012;2023-08-07T06:53:05;16.10;99.90
23544;DHT22;11950;51.230;4.012;2023-08-07T06:55:31;16.10;99.90
23544;DHT22;11950;51.230;4.012;2023-08-07T06:57:59;16.20;99.90
23544;DHT22;11950;51.230;4.012;2023-08-07T07:00:25;16.20;99.90
23544;DHT22;11950;51.230;4.012;2023-08-07T07:02:52;16.20;99.90
23544;DHT22;11950;51.230;4.012;2023-08-07T07:05:19;16.30;99.90
23544;DHT22;11950;51.230;4.012;2023-08-07T07:07:45;16.30;99.90
23544;DHT22;11950;51.230;4.012;2023-08-07T07:10:11;16.30;99.90
23544;DHT22;11950;51.230;4.012;2023-08-07T07:12:38;16.30;99.90
23544;DHT22;11950;51.230;4.012;2023-08-07T07:15:04;16.30;99.90
23544;DHT22;11950;51.230;4.012;2023-08-07T07:17:31;16.40;99.90
23544;DHT22;11950;51.230;4.012;2023-08-07T07:19:57;16.40;99.90
23544;DHT22;11950;51.230;4.012;2023-08-07T07:22:23;16.50;99.90
23544;DHT22;11950;51.230;4.012;2023-08-07T07:24:49;16.60;99.90
23544;DHT22;11950;51.230;4.012;2023-08-07T07:27:16;16.60;99.90
23544;DHT22;11950;51.230;4.012;2023-08-07T07:29:45;16.60;99.90
23544;DHT22;11950;51.230;4.012;2023-08-07T07:32:11;16.70;99.90
23544;DHT22;11950;51.230;4.012;2023-08-07T07:34:37;16.70;99.90
23544;DHT22;11950;51.230;4.012;2023-08-07T07:37:04;16.80;99.90
23544;DHT22;11950;51.230;4.012;2023-08-07T07:39:30;16.90;99.90
23544;DHT22;11950;51.230;4.012;2023-08-07T07:41:56;17.00;99.90
23544;DHT22;11950;51.230;4.012;2023-08-07T07:44:22;17.00;99.90
23544;DHT22;11950;51.230;4.012;2023-08-07T07:46:49;17.10;99.90
23544;DHT22;11950;51.230;4.012;2023-08-07T07:49:15;17.10;99.90
23544;DHT22;11950;51.230;4.012;2023-08-07T07:51:41;17.10;99.90
23544;DHT22;11950;51.230;4.012;2023-08-07T07:54:10;17.20;99.90
23544;DHT22;11950;51.230;4.012;2023-08-07T07:56:37;17.30;99.90
23544;DHT22;11950;51.230;4.012;2023-08-07T07:59:03;17.40;99.90
23544;DHT22;11950;51.230;4.012;2023-08-07T08:01:29;17.50;99.90
23544;DHT22;11950;51.230;4.012;2023-08-07T08:03:56;17.50;99.90
23544;DHT22;11950;51.230;4.012;2023-08-07T08:06:22;17.60;99.90
23544;DHT22;11950;51.230;4.012;2023-08-07T08:08:48;17.60;99.90
23544;DHT22;11950;51.230;4.012;2023-08-07T08:11:14;17.60;99.90
23544;DHT22;11950;51.230;4.012;2023-08-07T08:13:40;17.80;99.90
23544;DHT22;11950;51.230;4.012;2023-08-07T08:16:07;17.80;99.90
23544;DHT22;11950;51.230;4.012;2023-08-07T08:18:33;17.90;99.90
23544;DHT22;11950;51.230;4.012;2023-08-07T08:20:59;18.00;99.90
23544;DHT22;11950;51.230;4.012;2023-08-07T08:23:25;18.00;99.90
23544;DHT22;11950;51.230;4.012;2023-08-07T08:25:52;18.00;99.90
23544;DHT22;11950;51.230;4.012;2023-08-07T08:28:18;18.00;99.90
23544;DHT22;11950;51.230;4.012;2023-08-07T08:30:44;18.10;99.90
23544;DHT22;11950;51.230;4.012;2023-08-07T08:33:10;18.20;99.90
23544;DHT22;11950;51.230;4.012;2023-08-07T08:35:40;18.30;99.90
23544;DHT22;11950;51.230;4.012;2023-08-07T08:38:07;18.40;99.90
23544;DHT22;11950;51.230;4.012;2023-08-07T08:40:34;18.40;99.90
23544;DHT22;11950;51.230;4.012;2023-08-07T08:43:01;18.50;99.90
23544;DHT22;11950;51.230;4.012;2023-08-07T08:45:27;18.60;99.90
23544;DHT22;11950;51.230;4.012;2023-08-07T08:48:04;18.60;99.90
23544;DHT22;11950;51.230;4.012;2023-08-07T08:50:33;18.70;99.90
23544;DHT22;11950;51.230;4.012;2023-08-07T08:53:00;18.90;99.90
23544;DHT22;11950;51.230;4.012;2023-08-07T08:55:28;19.00;99.90
23544;DHT22;11950;51.230;4.012;2023-08-07T08:57:55;19.10;99.90
23544;DHT22;11950;51.230;4.012;2023-08-07T09:00:26;19.20;99.90
23544;DHT22;11950;51.230;4.012;2023-08-07T09:02:54;19.20;99.90
23544;DHT22;11950;51.230;4.012;2023-08-07T09:05:22;19.30;99.90
23544;DHT22;11950;51.230;4.012;2023-08-07T09:07:49;19.30;99.90
23544;DHT22;11950;51.230;4.012;2023-08-07T09:10:16;19.40;99.90
23544;DHT22;11950;51.230;4.012;2023-08-07T09:13:00;19.50;99.90
23544;DHT22;11950;51.230;4.012;2023-08-07T09:15:29;19.70;99.90
23544;DHT22;11950;51.230;4.012;2023-08-07T09:17:56;19.70;99.90
23544;DHT22;11950;51.230;4.012;2023-08-07T09:20:22;19.70;99.90
23544;DHT22;11950;51.230;4.012;2023-08-07T09:22:49;19.80;99.90
23544;DHT22;11950;51.230;4.012;2023-08-07T09:25:26;19.80;99.90
23544;DHT22;11950;51.230;4.012;2023-08-07T09:27:55;19.80;99.90
23544;DHT22;11950;51.230;4.012;2023-08-07T09:30:26;19.90;99.90
23544;DHT22;11950;51.230;4.012;2023-08-07T09:32:53;20.00;99.90
23544;DHT22;11950;51.230;4.012;2023-08-07T09:35:22;20.00;99.90
23544;DHT22;11950;51.230;4.012;2023-08-07T09:37:49;19.90;99.90
23544;DHT22;11950;51.230;4.012;2023-08-07T09:40:16;19.90;99.90
23544;DHT22;11950;51.230;4.012;2023-08-07T09:42:42;19.90;99.90
23544;DHT22;11950;51.230;4.012;2023-08-07T09:45:26;19.90;99.90
23544;DHT22;11950;51.230;4.012;2023-08-07T09:48:03;20.00;99.90
23544;DHT22;11950;51.230;4.012;2023-08-07T09:50:30;20.10;99.90
23544;DHT22;11950;51.230;4.012;2023-08-07T09:52:57;20.20;99.90
23544;DHT22;11950;51.230;4.012;2023-08-07T09:55:24;20.20;99.90
23544;DHT22;11950;51.230;4.012;2023-08-07T09:57:51;20.20;99.90
23544;DHT22;11950;51.230;4.012;2023-08-07T10:00:18;20.30;99.90
23544;DHT22;11950;51.230;4.012;2023-08-07T10:02:48;20.20;99.90
23544;DHT22;11950;51.230;4.012;2023-08-07T10:05:16;20.20;99.90
23544;DHT22;11950;51.230;4.012;2023-08-07T10:07:43;20.30;99.90
23544;DHT22;11950;51.230;4.012;2023-08-07T10:10:09;20.30;99.90
23544;DHT22;11950;51.230;4.012;2023-08-07T10:12:37;20.40;99.90
23544;DHT22;11950;51.230;4.012;2023-08-07T10:15:04;20.50;99.90
23544;DHT22;11950;51.230;4.012;2023-08-07T10:17:32;20.60;99.90
23544;DHT22;11950;51.230;4.012;2023-08-07T10:19:59;20.60;99.90
23544;DHT22;11950;51.230;4.012;2023-08-07T10:22:26;20.60;99.90
23544;DHT22;11950;51.230;4.012;2023-08-07T10:24:53;20.60;99.90
23544;DHT22;11950;51.230;4.012;2023-08-07T10:27:23;20.70;99.90
23544;DHT22;11950;51.230;4.012;2023-08-07T10:29:52;20.80;99.90
23544;DHT22;11950;51.230;4.012;2023-08-07T10:32:20;20.80;99.90
23544;DHT22;11950;51.230;4.012;2023-08-07T10:34:49;20.80;99.90
23544;DHT22;11950;51.230;4.012;2023-08-07T10:37:39;20.80;99.90
23544;DHT22;11950;51.230;4.012;2023-08-07T10:40:07;20.90;99.90
23544;DHT22;11950;51.230;4.012;2023-08-07T10:42:57;21.00;99.90
23544;DHT22;11950;51.230;4.012;2023-08-07T10:45:27;21.00;99.90
23544;DHT22;11950;51.230;4.012;2023-08-07T10:48:07;21.00;99.90
23544;DHT22;11950;51.230;4.012;2023-08-07T10:53:55;21.30;99.90
23544;DHT22;11950;51.230;4.012;2023-08-07T10:56:36;21.30;99.90
23544;DHT22;11950;51.230;4.012;2023-08-07T10:59:11;21.40;99.90
23544;DHT22;11950;51.230;4.012;2023-08-07T11:04:13;21.50;99.90
23544;DHT22;11950;51.230;4.012;2023-08-07T11:06:41;21.50;99.90
23544;DHT22;11950;51.230;4.012;2023-08-07T11:09:09;21.40;99.90
23544;DHT22;11950;51.230;4.012;2023-08-07T11:11:44;21.50;99.90
23544;DHT22;11950;51.230;4.012;2023-08-07T11:14:13;21.50;99.90
23544;DHT22;11950;51.230;4.012;2023-08-07T11:16:40;21.50;99.90
23544;DHT22;11950;51.230;4.012;2023-08-07T11:19:08;21.60;99.90
23544;DHT22;11950;51.230;4.012;2023-08-07T11:21:35;21.50;99.90
23544;DHT22;11950;51.230;4.012;2023-08-07T11:24:01;21.60;99.90
23544;DHT22;11950;51.230;4.012;2023-08-07T11:26:28;21.60;99.90
23544;DHT22;11950;51.230;4.012;2023-08-07T11:28:55;21.60;99.90
23544;DHT22;11950;51.230;4.012;2023-08-07T11:31:22;21.60;99.90
23544;DHT22;11950;51.230;4.012;2023-08-07T11:33:54;21.60;99.90
23544;DHT22;11950;51.230;4.012;2023-08-07T11:36:22;21.60;99.90
23544;DHT22;11950;51.230;4.012;2023-08-07T11:38:48;21.50;99.90
23544;DHT22;11950;51.230;4.012;2023-08-07T11:41:16;21.40;99.90
23544;DHT22;11950;51.230;4.012;2023-08-07T11:43:43;21.40;99.90
23544;DHT22;11950;51.230;4.012;2023-08-07T11:46:12;21.50;99.90
23544;DHT22;11950;51.230;4.012;2023-08-07T11:48:40;21.50;99.90
23544;DHT22;11950;51.230;4.012;2023-08-07T11:51:07;21.40;99.90
23544;DHT22;11950;51.230;4.012;2023-08-07T11:53:36;21.40;99.90
23544;DHT22;11950;51.230;4.012;2023-08-07T11:56:10;21.40;99.90
23544;DHT22;11950;51.230;4.012;2023-08-07T11:58:39;21.50;99.90
23544;DHT22;11950;51.230;4.012;2023-08-07T12:01:09;21.50;99.90
23544;DHT22;11950;51.230;4.012;2023-08-07T12:03:37;21.50;99.90
23544;DHT22;11950;51.230;4.012;2023-08-07T12:06:08;21.60;99.90
23544;DHT22;11950;51.230;4.012;2023-08-07T12:08:39;21.70;99.90
23544;DHT22;11950;51.230;4.012;2023-08-07T12:11:08;21.60;99.90
23544;DHT22;11950;51.230;4.012;2023-08-07T12:13:43;21.60;99.90
23544;DHT22;11950;51.230;4.012;2023-08-07T12:16:09;21.60;99.90
23544;DHT22;11950;51.230;4.012;2023-08-07T12:18:38;21.60;99.90
23544;DHT22;11950;51.230;4.012;2023-08-07T12:21:06;21.50;99.90
23544;DHT22;11950;51.230;4.012;2023-08-07T12:23:34;21.40;99.90
23544;DHT22;11950;51.230;4.012;2023-08-07T12:26:01;21.30;99.90
23544;DHT22;11950;51.230;4.012;2023-08-07T12:28:27;21.20;99.90
23544;DHT22;11950;51.230;4.012;2023-08-07T12:30:53;21.10;99.90
23544;DHT22;11950;51.230;4.012;2023-08-07T12:33:21;21.10;99.90
23544;DHT22;11950;51.230;4.012;2023-08-07T12:35:47;21.10;99.90
23544;DHT22;11950;51.230;4.012;2023-08-07T12:38:14;21.20;99.90
23544;DHT22;11950;51.230;4.012;2023-08-07T12:40:41;21.20;99.90
23544;DHT22;11950;51.230;4.012;2023-08-07T12:43:08;21.20;99.90
23544;DHT22;11950;51.230;4.012;2023-08-07T12:45:34;21.30;99.90
23544;DHT22;11950;51.230;4.012;2023-08-07T12:48:00;21.30;99.90
23544;DHT22;11950;51.230;4.012;2023-08-07T12:50:27;21.30;99.90
23544;DHT22;11950;51.230;4.012;2023-08-07T12:52:54;21.40;99.90
23544;DHT22;11950;51.230;4.012;2023-08-07T12:55:21;21.40;99.90
23544;DHT22;11950;51.230;4.012;2023-08-07T12:57:47;21.30;99.90
23544;DHT22;11950;51.230;4.012;2023-08-07T13:00:15;21.20;99.90
23544;DHT22;11950;51.230;4.012;2023-08-07T13:02:43;21.20;99.90
23544;DHT22;11950;51.230;4.012;2023-08-07T13:05:10;21.20;99.90
23544;DHT22;11950;51.230;4.012;2023-08-07T13:07:37;21.30;99.90
23544;DHT22;11950;51.230;4.012;2023-08-07T13:10:07;21.30;99.90
23544;DHT22;11950;51.230;4.012;2023-08-07T13:12:38;21.40;99.90
23544;DHT22;11950;51.230;4.012;2023-08-07T13:15:06;21.40;99.90
23544;DHT22;11950;51.230;4.012;2023-08-07T13:17:33;21.40;99.90
23544;DHT22;11950;51.230;4.012;2023-08-07T13:20:00;21.30;99.90
23544;DHT22;11950;51.230;4.012;2023-08-07T13:22:27;21.30;99.90
23544;DHT22;11950;51.230;4.012;2023-08-07T13:24:54;21.30;99.90
23544;DHT22;11950;51.230;4.012;2023-08-07T13:27:21;21.20;99.90
23544;DHT22;11950;51.230;4.012;2023-08-07T13:29:47;21.20;99.90
23544;DHT22;11950;51.230;4.012;2023-08-07T13:32:14;21.20;99.90
23544;DHT22;11950;51.230;4.012;2023-08-07T13:34:40;21.10;99.90
23544;DHT22;11950;51.230;4.012;2023-08-07T13:37:07;21.20;99.90
23544;DHT22;11950;51.230;4.012;2023-08-07T13:39:33;21.20;99.90
23544;DHT22;11950;51.230;4.012;2023-08-07T13:41:59;21.20;99.90
23544;DHT22;11950;51.230;4.012;2023-08-07T13:44:26;21.20;99.90
23544;DHT22;11950;51.230;4.012;2023-08-07T13:46:52;21.20;99.90
23544;DHT22;11950;51.230;4.012;2023-08-07T13:49:18;21.30;99.90
23544;DHT22;11950;51.230;4.012;2023-08-07T13:51:46;21.40;99.90
23544;DHT22;11950;51.230;4.012;2023-08-07T13:54:13;21.40;99.90
23544;DHT22;11950;51.230;4.012;2023-08-07T13:56:39;21.30;99.90
23544;DHT22;11950;51.230;4.012;2023-08-07T13:59:05;21.20;99.90
23544;DHT22;11950;51.230;4.012;2023-08-07T14:01:32;21.10;99.90
23544;DHT22;11950;51.230;4.012;2023-08-07T14:03:59;21.00;99.90
23544;DHT22;11950;51.230;4.012;2023-08-07T14:06:25;21.00;99.90
23544;DHT22;11950;51.230;4.012;2023-08-07T14:08:54;21.00;99.90
23544;DHT22;11950;51.230;4.012;2023-08-07T14:11:20;20.90;99.90
23544;DHT22;11950;51.230;4.012;2023-08-07T14:13:47;21.00;99.90
23544;DHT22;11950;51.230;4.012;2023-08-07T14:16:13;21.00;99.90
23544;DHT22;11950;51.230;4.012;2023-08-07T14:18:39;21.00;99.90
23544;DHT22;11950;51.230;4.012;2023-08-07T14:21:06;20.80;99.90
23544;DHT22;11950;51.230;4.012;2023-08-07T14:23:32;20.80;99.90
23544;DHT22;11950;51.230;4.012;2023-08-07T14:25:58;20.70;99.90
23544;DHT22;11950;51.230;4.012;2023-08-07T14:28:24;20.70;99.90
23544;DHT22;11950;51.230;4.012;2023-08-07T14:30:51;20.70;99.90
23544;DHT22;11950;51.230;4.012;2023-08-07T14:33:17;20.70;99.90
23544;DHT22;11950;51.230;4.012;2023-08-07T14:35:44;20.70;99.90
23544;DHT22;11950;51.230;4.012;2023-08-07T14:38:10;20.80;99.90
23544;DHT22;11950;51.230;4.012;2023-08-07T14:40:36;20.90;99.90
23544;DHT22;11950;51.230;4.012;2023-08-07T14:43:07;21.00;99.90
23544;DHT22;11950;51.230;4.012;2023-08-07T14:45:33;21.00;99.90
23544;DHT22;11950;51.230;4.012;2023-08-07T14:47:59;21.00;99.90
23544;DHT22;11950;51.230;4.012;2023-08-07T14:50:25;21.00;99.90
23544;DHT22;11950;51.230;4.012;2023-08-07T14:52:52;21.00;99.90
23544;DHT22;11950;51.230;4.012;2023-08-07T14:55:18;21.00;99.90
23544;DHT22;11950;51.230;4.012;2023-08-07T14:57:44;20.90;99.90
23544;DHT22;11950;51.230;4.012;2023-08-07T15:00:11;20.80;99.90
23544;DHT22;11950;51.230;4.012;2023-08-07T15:02:39;20.70;99.90
23544;DHT22;11950;51.230;4.012;2023-08-07T15:05:07;20.70;99.90
23544;DHT22;11950;51.230;4.012;2023-08-07T15:07:33;20.60;99.90
23544;DHT22;11950;51.230;4.012;2023-08-07T15:10:00;20.70;99.90
23544;DHT22;11950;51.230;4.012;2023-08-07T15:12:26;20.70;99.90
23544;DHT22;11950;51.230;4.012;2023-08-07T15:14:52;20.70;99.90
23544;DHT22;11950;51.230;4.012;2023-08-07T15:17:19;20.70;99.90
23544;DHT22;11950;51.230;4.012;2023-08-07T15:19:45;20.70;99.90
23544;DHT22;11950;51.230;4.012;2023-08-07T15:22:11;20.70;99.90
23544;DHT22;11950;51.230;4.012;2023-08-07T15:24:37;20.70;99.90
23544;DHT22;11950;51.230;4.012;2023-08-07T15:27:04;20.70;99.90
23544;DHT22;11950;51.230;4.012;2023-08-07T15:29:30;20.70;99.90
23544;DHT22;11950;51.230;4.012;2023-08-07T15:31:56;20.70;99.90
23544;DHT22;11950;51.230;4.012;2023-08-07T15:34:22;20.70;99.90
23544;DHT22;11950;51.230;4.012;2023-08-07T15:36:49;20.70;99.90
23544;DHT22;11950;51.230;4.012;2023-08-07T15:39:15;20.70;99.90
23544;DHT22;11950;51.230;4.012;2023-08-07T15:41:41;20.70;99.90
23544;DHT22;11950;51.230;4.012;2023-08-07T15:44:08;20.70;99.90